sensor_id;sensor_type;location;lat;lon;timestamp;pressure;altitude;pressure_sealevel;temperature;humidity
14041;BME280;7095;51.388;6.196;2022-11-04T00:02:23;85798.66;;;-145.32;100.00
14041;BME280;7095;51.388;6.196;2022-11-04T00:04:52;85284.91;;;-145.32;100.00
14041;BME280;7095;51.388;6.196;2022-11-04T00:07:23;84000.91;;;-145.32;100.00
14041;BME280;7095;51.388;6.196;2022-11-04T00:10:09;84771.25;;;-145.32;100.00
14041;BME280;7095;51.388;6.196;2022-11-04T00:12:38;85028.06;;;-145.32;100.00
14041;BME280;7095;51.388;6.196;2022-11-04T00:15:06;84257.66;;;-145.32;100.00
14041;BME280;7095;51.388;6.196;2022-11-04T00:17:49;84257.66;;;-145.32;100.00
14041;BME280;7095;51.388;6.196;2022-11-04T00:20:18;84514.44;;;-145.32;100.00
14041;BME280;7095;51.388;6.196;2022-11-04T00:23:12;84771.25;;;-145.32;100.00
14041;BME280;7095;51.388;6.196;2022-11-04T00:25:58;84771.25;;;-145.32;100.00
14041;BME280;7095;51.388;6.196;2022-11-04T00:28:45;85028.06;;;-145.32;100.00
14041;BME280;7095;51.388;6.196;2022-11-04T00:31:14;84771.25;;;-145.32;100.00
14041;BME280;7095;51.388;6.196;2022-11-04T00:34:00;84771.25;;;-145.32;100.00
14041;BME280;7095;51.388;6.196;2022-11-04T00:36:29;84771.25;;;-145.32;100.00
14041;BME280;7095;51.388;6.196;2022-11-04T00:39:01;85284.91;;;-145.32;100.00
14041;BME280;7095;51.388;6.196;2022-11-04T00:41:34;85028.06;;;-145.32;100.00
14041;BME280;7095;51.388;6.196;2022-11-04T00:44:04;85284.91;;;-145.32;100.00
14041;BME280;7095;51.388;6.196;2022-11-04T00:46:33;85284.91;;;-145.32;100.00
14041;BME280;7095;51.388;6.196;2022-11-04T00:49:01;85284.91;;;-145.32;100.00
14041;BME280;7095;51.388;6.196;2022-11-04T00:51:30;85284.91;;;-145.32;100.00
14041;BME280;7095;51.388;6.196;2022-11-04T00:54:02;85541.78;;;-145.32;100.00
14041;BME280;7095;51.388;6.196;2022-11-04T00:56:31;86055.56;;;-145.32;100.00
14041;BME280;7095;51.388;6.196;2022-11-04T00:59:00;86312.47;;;-145.32;100.00
14041;BME280;7095;51.388;6.196;2022-11-04T01:01:29;86055.56;;;-145.32;100.00
14041;BME280;7095;51.388;6.196;2022-11-04T01:03:57;86312.47;;;-145.32;100.00
14041;BME280;7095;51.388;6.196;2022-11-04T01:06:26;86312.47;;;-145.32;100.00
14041;BME280;7095;51.388;6.196;2022-11-04T01:08:55;86826.34;;;-145.32;100.00
14041;BME280;7095;51.388;6.196;2022-11-04T01:11:27;87340.31;;;-145.32;100.00
14041;BME280;7095;51.388;6.196;2022-11-04T01:13:57;87597.34;;;-145.32;100.00
14041;BME280;7095;51.388;6.196;2022-11-04T01:16:27;87597.34;;;-145.32;100.00
14041;BME280;7095;51.388;6.196;2022-11-04T01:18:59;87597.34;;;-145.32;100.00
14041;BME280;7095;51.388;6.196;2022-11-04T01:21:29;87597.34;;;-145.32;100.00
14041;BME280;7095;51.388;6.196;2022-11-04T01:23:58;87854.38;;;-145.32;100.00
14041;BME280;7095;51.388;6.196;2022-11-04T01:26:31;87854.38;;;-145.32;100.00
14041;BME280;7095;51.388;6.196;2022-11-04T01:29:00;88111.41;;;-145.32;100.00
14041;BME280;7095;51.388;6.196;2022-11-04T01:31:30;88368.50;;;-145.32;100.00
14041;BME280;7095;51.388;6.196;2022-11-04T01:33:58;88625.56;;;-145.32;100.00
14041;BME280;7095;51.388;6.196;2022-11-04T01:36:27;88368.50;;;-145.32;100.00
14041;BME280;7095;51.388;6.196;2022-11-04T01:38:56;88625.56;;;-145.32;100.00
14041;BME280;7095;51.388;6.196;2022-11-04T01:41:26;88368.50;;;-145.32;100.00
14041;BME280;7095;51.388;6.196;2022-11-04T01:43:58;87854.38;;;-145.32;100.00
14041;BME280;7095;51.388;6.196;2022-11-04T01:46:32;87340.31;;;-145.32;100.00
14041;BME280;7095;51.388;6.196;2022-11-04T01:49:16;86569.41;;;-145.32;100.00
14041;BME280;7095;51.388;6.196;2022-11-04T01:51:53;86826.34;;;-145.32;100.00
14041;BME280;7095;51.388;6.196;2022-11-04T01:54:22;86569.41;;;-145.32;100.00
14041;BME280;7095;51.388;6.196;2022-11-04T01:56:51;86312.47;;;-145.32;100.00
14041;BME280;7095;51.388;6.196;2022-11-04T01:59:25;86569.41;;;-145.32;100.00
14041;BME280;7095;51.388;6.196;2022-11-04T02:01:55;86569.41;;;-145.32;100.00
14041;BME280;7095;51.388;6.196;2022-11-04T02:04:25;86569.41;;;-145.32;100.00
14041;BME280;7095;51.388;6.196;2022-11-04T02:06:56;86312.47;;;-145.32;100.00
14041;BME280;7095;51.388;6.196;2022-11-04T02:09:26;86569.41;;;-145.32;100.00
14041;BME280;7095;51.388;6.196;2022-11-04T02:11:56;86312.47;;;-145.32;100.00
14041;BME280;7095;51.388;6.196;2022-11-04T02:14:45;86826.34;;;-145.32;100.00
14041;BME280;7095;51.388;6.196;2022-11-04T02:17:27;87083.34;;;-145.32;100.00
14041;BME280;7095;51.388;6.196;2022-11-04T02:26:22;86826.34;;;-145.32;100.00
14041;BME280;7095;51.388;6.196;2022-11-04T02:29:18;87597.34;;;-145.32;100.00
14041;BME280;7095;51.388;6.196;2022-11-04T02:31:58;87340.31;;;-145.32;100.00
14041;BME280;7095;51.388;6.196;2022-11-04T02:34:39;87340.31;;;-145.32;100.00
14041;BME280;7095;51.388;6.196;2022-11-04T02:37:15;87340.31;;;-145.32;100.00
14041;BME280;7095;51.388;6.196;2022-11-04T02:39:50;87340.31;;;-145.32;100.00
14041;BME280;7095;51.388;6.196;2022-11-04T02:42:26;87597.34;;;-145.32;100.00
14041;BME280;7095;51.388;6.196;2022-11-04T02:45:11;87340.31;;;-145.32;100.00
14041;BME280;7095;51.388;6.196;2022-11-04T02:47:44;87854.38;;;-145.32;100.00
14041;BME280;7095;51.388;6.196;2022-11-04T02:50:21;88111.41;;;-145.32;100.00
14041;BME280;7095;51.388;6.196;2022-11-04T02:52:56;87854.38;;;-145.32;100.00
14041;BME280;7095;51.388;6.196;2022-11-04T02:55:29;88368.50;;;-145.32;100.00
14041;BME280;7095;51.388;6.196;2022-11-04T02:58:02;88368.50;;;-145.32;100.00
14041;BME280;7095;51.388;6.196;2022-11-04T03:00:35;88368.50;;;-145.32;100.00
14041;BME280;7095;51.388;6.196;2022-11-04T03:03:10;88625.56;;;-145.32;100.00
14041;BME280;7095;51.388;6.196;2022-11-04T03:05:44;88625.56;;;-145.32;100.00
14041;BME280;7095;51.388;6.196;2022-11-04T03:08:19;88882.69;;;-145.32;100.00
14041;BME280;7095;51.388;6.196;2022-11-04T03:10:52;88882.69;;;-145.32;100.00
14041;BME280;7095;51.388;6.196;2022-11-04T03:13:27;89654.13;;;-145.32;100.00
14041;BME280;7095;51.388;6.196;2022-11-04T03:16:02;89396.97;;;-145.32;100.00
14041;BME280;7095;51.388;6.196;2022-11-04T03:18:37;89396.97;;;-145.32;100.00
14041;BME280;7095;51.388;6.196;2022-11-04T03:21:11;89911.31;;;-145.32;100.00
14041;BME280;7095;51.388;6.196;2022-11-04T03:23:41;89911.31;;;-145.32;100.00
14041;BME280;7095;51.388;6.196;2022-11-04T03:26:16;90168.50;;;-145.32;100.00
14041;BME280;7095;51.388;6.196;2022-11-04T03:28:54;90425.72;;;-145.32;100.00
14041;BME280;7095;51.388;6.196;2022-11-04T03:31:28;90682.97;;;-145.32;100.00
14041;BME280;7095;51.388;6.196;2022-11-04T03:33:59;90682.97;;;-145.32;100.00
14041;BME280;7095;51.388;6.196;2022-11-04T03:36:28;91197.50;;;-145.32;100.00
14041;BME280;7095;51.388;6.196;2022-11-04T03:38:58;91712.13;;;-145.32;100.00
14041;BME280;7095;51.388;6.196;2022-11-04T03:41:32;91712.13;;;-145.32;100.00
14041;BME280;7095;51.388;6.196;2022-11-04T03:44:02;91454.81;;;-145.32;100.00
14041;BME280;7095;51.388;6.196;2022-11-04T03:46:32;91197.50;;;-145.32;100.00
14041;BME280;7095;51.388;6.196;2022-11-04T03:49:01;90940.22;;;-145.32;100.00
14041;BME280;7095;51.388;6.196;2022-11-04T03:51:30;90940.22;;;-145.32;100.00
14041;BME280;7095;51.388;6.196;2022-11-04T03:53:59;90682.97;;;-145.32;100.00
14041;BME280;7095;51.388;6.196;2022-11-04T03:56:45;90940.22;;;-145.32;100.00
14041;BME280;7095;51.388;6.196;2022-11-04T03:59:30;90940.22;;;-145.32;100.00
14041;BME280;7095;51.388;6.196;2022-11-04T04:02:11;91197.50;;;-145.32;100.00
14041;BME280;7095;51.388;6.196;2022-11-04T04:04:48;91712.13;;;-145.32;100.00
14041;BME280;7095;51.388;6.196;2022-11-04T04:07:31;92226.81;;;-145.32;100.00
14041;BME280;7095;51.388;6.196;2022-11-04T04:10:05;92741.59;;;-145.32;100.00
14041;BME280;7095;51.388;6.196;2022-11-04T04:12:55;92999.00;;;-145.32;100.00
14041;BME280;7095;51.388;6.196;2022-11-04T04:15:29;93513.91;;;-145.32;100.00
14041;BME280;7095;51.388;6.196;2022-11-04T04:18:07;93256.44;;;-145.32;100.00
14041;BME280;7095;51.388;6.196;2022-11-04T04:20:39;93256.44;;;-145.32;100.00
14041;BME280;7095;51.388;6.196;2022-11-04T04:23:12;92741.59;;;-145.32;100.00
14041;BME280;7095;51.388;6.196;2022-11-04T04:26:04;92484.19;;;-145.32;100.00
14041;BME280;7095;51.388;6.196;2022-11-04T04:28:53;91969.47;;;-145.32;100.00
14041;BME280;7095;51.388;6.196;2022-11-04T04:31:25;91454.81;;;-145.32;100.00
14041;BME280;7095;51.388;6.196;2022-11-04T04:34:14;90682.97;;;-145.32;100.00
14041;BME280;7095;51.388;6.196;2022-11-04T04:36:45;90425.72;;;-145.32;100.00
14041;BME280;7095;51.388;6.196;2022-11-04T04:39:17;90168.50;;;-145.32;100.00
14041;BME280;7095;51.388;6.196;2022-11-04T04:42:07;89654.13;;;-145.32;100.00
14041;BME280;7095;51.388;6.196;2022-11-04T04:44:53;89396.97;;;-145.32;100.00
14041;BME280;7095;51.388;6.196;2022-11-04T04:47:35;89139.81;;;-145.32;100.00
14041;BME280;7095;51.388;6.196;2022-11-04T04:50:08;88625.56;;;-145.32;100.00
14041;BME280;7095;51.388;6.196;2022-11-04T04:52:39;88625.56;;;-145.32;100.00
14041;BME280;7095;51.388;6.196;2022-11-04T04:55:09;88368.50;;;-145.32;100.00
14041;BME280;7095;51.388;6.196;2022-11-04T04:57:38;87854.38;;;-145.32;100.00
14041;BME280;7095;51.388;6.196;2022-11-04T05:00:08;88111.41;;;-145.32;100.00
14041;BME280;7095;51.388;6.196;2022-11-04T05:02:39;88111.41;;;-145.32;100.00
14041;BME280;7095;51.388;6.196;2022-11-04T05:05:10;88111.41;;;-145.32;100.00
14041;BME280;7095;51.388;6.196;2022-11-04T05:07:44;88111.41;;;-145.32;100.00
14041;BME280;7095;51.388;6.196;2022-11-04T05:10:14;87083.34;;;-145.32;100.00
14041;BME280;7095;51.388;6.196;2022-11-04T05:12:43;86826.34;;;-145.32;100.00
14041;BME280;7095;51.388;6.196;2022-11-04T05:15:30;85541.78;;;-145.32;100.00
14041;BME280;7095;51.388;6.196;2022-11-04T05:18:01;85028.06;;;-145.32;100.00
14041;BME280;7095;51.388;6.196;2022-11-04T05:20:32;84514.44;;;-145.32;100.00
14041;BME280;7095;51.388;6.196;2022-11-04T05:23:01;83744.16;;;-145.32;100.00
14041;BME280;7095;51.388;6.196;2022-11-04T05:25:30;84257.66;;;-145.32;100.00
14041;BME280;7095;51.388;6.196;2022-11-04T05:27:59;85798.66;;;-145.32;100.00
14041;BME280;7095;51.388;6.196;2022-11-04T05:30:28;86055.56;;;-145.32;100.00
14041;BME280;7095;51.388;6.196;2022-11-04T05:32:57;85284.91;;;-145.32;100.00
14041;BME280;7095;51.388;6.196;2022-11-04T05:35:32;85028.06;;;-145.32;100.00
14041;BME280;7095;51.388;6.196;2022-11-04T05:38:05;86055.56;;;-145.32;100.00
14041;BME280;7095;51.388;6.196;2022-11-04T05:40:33;85028.06;;;-145.32;100.00
14041;BME280;7095;51.388;6.196;2022-11-04T05:43:02;84771.25;;;-145.32;100.00
14041;BME280;7095;51.388;6.196;2022-11-04T05:45:33;84771.25;;;-145.32;100.00
14041;BME280;7095;51.388;6.196;2022-11-04T05:48:03;84771.25;;;-145.32;100.00
14041;BME280;7095;51.388;6.196;2022-11-04T05:50:33;84000.91;;;-145.32;100.00
14041;BME280;7095;51.388;6.196;2022-11-04T05:53:02;83744.16;;;-145.32;100.00
14041;BME280;7095;51.388;6.196;2022-11-04T05:55:30;85798.66;;;-145.32;100.00
14041;BME280;7095;51.388;6.196;2022-11-04T05:57:59;87340.31;;;-145.32;100.00
14041;BME280;7095;51.388;6.196;2022-11-04T06:00:27;87854.38;;;-145.32;100.00
14041;BME280;7095;51.388;6.196;2022-11-04T06:02:56;88625.56;;;-145.32;100.00
14041;BME280;7095;51.388;6.196;2022-11-04T06:05:26;89396.97;;;-145.32;100.00
14041;BME280;7095;51.388;6.196;2022-11-04T06:07:56;90425.72;;;-145.32;100.00
14041;BME280;7095;51.388;6.196;2022-11-04T06:10:24;91197.50;;;-145.32;100.00
14041;BME280;7095;51.388;6.196;2022-11-04T06:12:53;91969.47;;;-145.32;100.00
14041;BME280;7095;51.388;6.196;2022-11-04T06:15:21;93513.91;;;-145.32;100.00
14041;BME280;7095;51.388;6.196;2022-11-04T06:17:50;94286.38;;;-145.32;100.00
14041;BME280;7095;51.388;6.196;2022-11-04T06:20:18;94543.91;;;-145.32;100.00
14041;BME280;7095;51.388;6.196;2022-11-04T06:22:47;95574.19;;;-145.32;100.00
14041;BME280;7095;51.388;6.196;2022-11-04T06:25:17;95831.81;;;-145.32;100.00
14041;BME280;7095;51.388;6.196;2022-11-04T06:27:46;96347.13;;;-145.32;100.00
14041;BME280;7095;51.388;6.196;2022-11-04T06:30:14;97120.22;;;-145.32;100.00
14041;BME280;7095;51.388;6.196;2022-11-04T06:32:43;97635.72;;;-145.32;100.00
14041;BME280;7095;51.388;6.196;2022-11-04T06:35:12;98151.31;;;-145.32;100.00
14041;BME280;7095;51.388;6.196;2022-11-04T06:37:40;98924.81;;;-145.32;100.00
14041;BME280;7095;51.388;6.196;2022-11-04T06:40:09;99440.56;;;-145.32;100.00
14041;BME280;7095;51.388;6.196;2022-11-04T06:42:40;99698.47;;;-145.32;100.00
14041;BME280;7095;51.388;6.196;2022-11-04T06:45:09;99698.47;;;-145.32;100.00
14041;BME280;7095;51.388;6.196;2022-11-04T06:47:38;100214.34;;;-145.32;100.00
14041;BME280;7095;51.388;6.196;2022-11-04T06:50:07;100472.31;;;-145.32;100.00
14041;BME280;7095;51.388;6.196;2022-11-04T06:52:37;100472.31;;;-145.32;100.00
14041;BME280;7095;51.388;6.196;2022-11-04T06:55:09;100988.31;;;-145.32;100.00
14041;BME280;7095;51.388;6.196;2022-11-04T06:57:39;101246.34;;;-145.32;100.00
14041;BME280;7095;51.388;6.196;2022-11-04T07:00:11;100988.31;;;-145.32;100.00
14041;BME280;7095;51.388;6.196;2022-11-04T07:02:40;101246.34;;;-145.32;100.00
14041;BME280;7095;51.388;6.196;2022-11-04T07:05:09;102020.53;;;-145.32;100.00
14041;BME280;7095;51.388;6.196;2022-11-04T07:07:38;102278.66;;;-145.32;100.00
14041;BME280;7095;51.388;6.196;2022-11-04T07:10:07;102536.75;;;-145.32;100.00
14041;BME280;7095;51.388;6.196;2022-11-04T07:12:36;103053.06;;;-145.32;100.00
14041;BME280;7095;51.388;6.196;2022-11-04T07:15:06;102794.91;;;-145.32;100.00
14041;BME280;7095;51.388;6.196;2022-11-04T07:17:35;103053.06;;;-145.32;100.00
14041;BME280;7095;51.388;6.196;2022-11-04T07:20:05;103569.44;;;-145.32;100.00
14041;BME280;7095;51.388;6.196;2022-11-04T07:22:33;103311.25;;;-145.32;100.00
14041;BME280;7095;51.388;6.196;2022-11-04T07:25:02;103053.06;;;-145.32;100.00
14041;BME280;7095;51.388;6.196;2022-11-04T07:27:31;103053.06;;;-145.32;100.00
14041;BME280;7095;51.388;6.196;2022-11-04T07:30:00;103053.06;;;-145.32;100.00
14041;BME280;7095;51.388;6.196;2022-11-04T07:32:31;103053.06;;;-145.32;100.00
14041;BME280;7095;51.388;6.196;2022-11-04T07:35:04;103311.25;;;-145.32;100.00
14041;BME280;7095;51.388;6.196;2022-11-04T07:37:33;104085.91;;;-145.32;100.00
14041;BME280;7095;51.388;6.196;2022-11-04T07:40:02;104085.91;;;-145.32;100.00
14041;BME280;7095;51.388;6.196;2022-11-04T07:42:30;103053.06;;;-145.32;100.00
14041;BME280;7095;51.388;6.196;2022-11-04T07:45:06;103053.06;;;-145.32;100.00
14041;BME280;7095;51.388;6.196;2022-11-04T07:47:35;103053.06;;;-145.32;100.00
14041;BME280;7095;51.388;6.196;2022-11-04T07:50:04;102794.91;;;-145.32;100.00
14041;BME280;7095;51.388;6.196;2022-11-04T07:52:37;102536.75;;;-145.32;100.00
14041;BME280;7095;51.388;6.196;2022-11-04T07:55:06;102020.53;;;-145.32;100.00
14041;BME280;7095;51.388;6.196;2022-11-04T07:57:36;101762.47;;;-145.32;100.00
14041;BME280;7095;51.388;6.196;2022-11-04T08:00:05;101246.34;;;-145.32;100.00
14041;BME280;7095;51.388;6.196;2022-11-04T08:02:39;100988.31;;;-145.32;100.00
14041;BME280;7095;51.388;6.196;2022-11-04T08:05:08;100988.31;;;-145.32;100.00
14041;BME280;7095;51.388;6.196;2022-11-04T08:07:37;101246.34;;;-145.32;100.00
14041;BME280;7095;51.388;6.196;2022-11-04T08:10:06;101762.47;;;-145.32;100.00
14041;BME280;7095;51.388;6.196;2022-11-04T08:12:36;102020.53;;;-145.32;100.00
14041;BME280;7095;51.388;6.196;2022-11-04T08:15:06;101762.47;;;-145.32;100.00
14041;BME280;7095;51.388;6.196;2022-11-04T08:17:35;101504.38;;;-145.32;100.00
14041;BME280;7095;51.388;6.196;2022-11-04T08:20:06;101762.47;;;-145.32;100.00
14041;BME280;7095;51.388;6.196;2022-11-04T08:22:35;101762.47;;;-145.32;100.00
14041;BME280;7095;51.388;6.196;2022-11-04T08:25:05;101504.38;;;-145.32;100.00
14041;BME280;7095;51.388;6.196;2022-11-04T08:27:33;101246.34;;;-145.32;100.00
14041;BME280;7095;51.388;6.196;2022-11-04T08:30:02;101504.38;;;-145.32;100.00
14041;BME280;7095;51.388;6.196;2022-11-04T08:32:31;101504.38;;;-145.32;100.00
14041;BME280;7095;51.388;6.196;2022-11-04T08:35:00;101762.47;;;-145.32;100.00
14041;BME280;7095;51.388;6.196;2022-11-04T08:37:30;101762.47;;;-145.32;100.00
14041;BME280;7095;51.388;6.196;2022-11-04T08:39:58;101246.34;;;-145.32;100.00
14041;BME280;7095;51.388;6.196;2022-11-04T08:42:27;100988.31;;;-145.32;100.00
14041;BME280;7095;51.388;6.196;2022-11-04T08:44:58;101246.34;;;-145.32;100.00
14041;BME280;7095;51.388;6.196;2022-11-04T08:47:32;100730.31;;;-145.32;100.00
14041;BME280;7095;51.388;6.196;2022-11-04T08:50:01;100730.31;;;-145.32;100.00
14041;BME280;7095;51.388;6.196;2022-11-04T08:52:31;100214.34;;;-145.32;100.00
14041;BME280;7095;51.388;6.196;2022-11-04T08:55:01;100472.31;;;-145.32;100.00
14041;BME280;7095;51.388;6.196;2022-11-04T08:57:29;100988.31;;;-145.32;100.00
14041;BME280;7095;51.388;6.196;2022-11-04T08:59:57;100730.31;;;-145.32;100.00
14041;BME280;7095;51.388;6.196;2022-11-04T09:02:26;99440.56;;;-145.32;100.00
14041;BME280;7095;51.388;6.196;2022-11-04T09:04:55;99440.56;;;-145.32;100.00
14041;BME280;7095;51.388;6.196;2022-11-04T09:07:23;98666.94;;;-145.32;100.00
14041;BME280;7095;51.388;6.196;2022-11-04T09:09:53;99182.69;;;-145.32;100.00
14041;BME280;7095;51.388;6.196;2022-11-04T09:12:22;95316.59;;;-145.32;100.00
14041;BME280;7095;51.388;6.196;2022-11-04T09:14:51;96862.50;;;-145.32;100.00
14041;BME280;7095;51.388;6.196;2022-11-04T09:17:19;97635.72;;;-145.32;100.00
14041;BME280;7095;51.388;6.196;2022-11-04T09:19:48;96604.81;;;-145.32;100.00
14041;BME280;7095;51.388;6.196;2022-11-04T09:22:17;95831.81;;;-145.32;100.00
14041;BME280;7095;51.388;6.196;2022-11-04T09:24:46;94801.44;;;-145.32;100.00
14041;BME280;7095;51.388;6.196;2022-11-04T09:27:16;95059.00;;;-145.32;100.00
14041;BME280;7095;51.388;6.196;2022-11-04T09:29:45;94028.84;;;-145.32;100.00
14041;BME280;7095;51.388;6.196;2022-11-04T09:32:13;91969.47;;;-145.32;100.00
14041;BME280;7095;51.388;6.196;2022-11-04T09:34:42;91712.13;;;-145.32;100.00
14041;BME280;7095;51.388;6.196;2022-11-04T09:37:10;88111.41;;;-145.32;100.00
14041;BME280;7095;51.388;6.196;2022-11-04T09:39:39;87854.38;;;-145.32;100.00
14041;BME280;7095;51.388;6.196;2022-11-04T09:42:27;87597.34;;;-145.32;100.00
14041;BME280;7095;51.388;6.196;2022-11-04T09:45:02;85028.06;;;-145.32;100.00
14041;BME280;7095;51.388;6.196;2022-11-04T09:47:50;84514.44;;;-145.32;100.00
14041;BME280;7095;51.388;6.196;2022-11-04T09:50:23;83744.16;;;-145.32;100.00
14041;BME280;7095;51.388;6.196;2022-11-04T09:52:54;82460.72;;;-145.32;100.00
14041;BME280;7095;51.388;6.196;2022-11-04T09:55:29;79895.28;;;-145.32;100.00
14041;BME280;7095;51.388;6.196;2022-11-04T09:58:00;80921.25;;;-145.32;100.00
14041;BME280;7095;51.388;6.196;2022-11-04T10:00:31;77844.31;;;-145.32;100.00
14041;BME280;7095;51.388;6.196;2022-11-04T10:03:14;77588.03;;;-145.32;100.00
14041;BME280;7095;51.388;6.196;2022-11-04T10:06:10;75282.31;;;-145.32;100.00
14041;BME280;7095;51.388;6.196;2022-11-04T10:08:57;75026.22;;;-145.32;100.00
14041;BME280;7095;51.388;6.196;2022-11-04T10:11:37;69582.75;;;-145.32;100.00
14041;BME280;7095;51.388;6.196;2022-11-04T10:14:29;65815.59;;;-145.32;100.00
14041;BME280;7095;51.388;6.196;2022-11-04T10:17:11;67985.16;;;-145.32;100.00
14041;BME280;7095;51.388;6.196;2022-11-04T10:19:55;68813.81;;;-145.32;100.00
14041;BME280;7095;51.388;6.196;2022-11-04T10:22:30;64901.88;;;-145.32;100.00
14041;BME280;7095;51.388;6.196;2022-11-04T10:25:07;61229.53;;;-145.32;100.00
14041;BME280;7095;51.388;6.196;2022-11-04T10:27:42;61444.75;;;-145.32;100.00
14041;BME280;7095;51.388;6.196;2022-11-04T10:30:17;61691.84;;;-145.32;100.00
14041;BME280;7095;51.388;6.196;2022-11-04T10:32:54;62098.41;;;-145.32;100.00
14041;BME280;7095;51.388;6.196;2022-11-04T10:35:30;61014.34;;;-145.32;100.00
14041;BME280;7095;51.388;6.196;2022-11-04T10:38:14;60468.44;;;-145.32;100.00
14041;BME280;7095;51.388;6.196;2022-11-04T10:40:46;59831.03;;;-145.32;100.00
14041;BME280;7095;51.388;6.196;2022-11-04T10:43:18;59351.03;;;-145.32;100.00
14041;BME280;7095;51.388;6.196;2022-11-04T10:46:00;58819.34;;;-145.32;100.00
14041;BME280;7095;51.388;6.196;2022-11-04T10:48:35;57620.88;;;-145.32;100.00
14041;BME280;7095;51.388;6.196;2022-11-04T10:51:05;58371.38;;;-145.32;100.00
14041;BME280;7095;51.388;6.196;2022-11-04T10:53:33;58976.66;;;-145.32;100.00
14041;BME280;7095;51.388;6.196;2022-11-04T10:56:05;58202.13;;;-145.32;100.00
14041;BME280;7095;51.388;6.196;2022-11-04T10:58:43;58297.69;;;-145.32;100.00
14041;BME280;7095;51.388;6.196;2022-11-04T11:01:25;57682.56;;;-145.32;100.00
14041;BME280;7095;51.388;6.196;2022-11-04T11:03:55;56649.66;;;-145.32;100.00
14041;BME280;7095;51.388;6.196;2022-11-04T11:06:26;56227.81;;;-145.32;100.00
14041;BME280;7095;51.388;6.196;2022-11-04T11:08:57;56870.53;;;-145.32;100.00
14041;BME280;7095;51.388;6.196;2022-11-04T11:11:39;55825.94;;;-145.32;100.00
14041;BME280;7095;51.388;6.196;2022-11-04T11:14:16;56096.50;;;-145.32;100.00
14041;BME280;7095;51.388;6.196;2022-11-04T11:16:46;55798.09;;;-145.32;100.00
14041;BME280;7095;51.388;6.196;2022-11-04T11:19:17;55881.63;;;-145.32;100.00
14041;BME280;7095;51.388;6.196;2022-11-04T11:21:49;55857.75;;;-145.32;100.00
14041;BME280;7095;51.388;6.196;2022-11-04T11:24:20;55847.81;;;-145.32;100.00
14041;BME280;7095;51.388;6.196;2022-11-04T11:26:51;55682.69;;;-145.32;100.00
14041;BME280;7095;51.388;6.196;2022-11-04T11:29:23;55778.19;;;-145.32;100.00
14041;BME280;7095;51.388;6.196;2022-11-04T11:31:55;55746.34;;;-145.32;100.00
14041;BME280;7095;51.388;6.196;2022-11-04T11:34:27;55249.06;;;-145.32;100.00
14041;BME280;7095;51.388;6.196;2022-11-04T11:36:59;55479.78;;;-145.32;100.00
14041;BME280;7095;51.388;6.196;2022-11-04T11:39:30;55535.50;;;-145.32;100.00
14041;BME280;7095;51.388;6.196;2022-11-04T11:42:01;55684.69;;;-145.32;100.00
14041;BME280;7095;51.388;6.196;2022-11-04T11:44:32;55621.03;;;-145.32;100.00
14041;BME280;7095;51.388;6.196;2022-11-04T11:47:16;55722.47;;;-145.32;100.00
14041;BME280;7095;51.388;6.196;2022-11-04T11:50:03;55634.94;;;-145.32;100.00
14041;BME280;7095;51.388;6.196;2022-11-04T11:52:34;55812.00;;;-145.32;100.00
14041;BME280;7095;51.388;6.196;2022-11-04T11:55:09;55704.59;;;-145.32;100.00
14041;BME280;7095;51.388;6.196;2022-11-04T11:57:46;55734.41;;;-145.32;100.00
14041;BME280;7095;51.388;6.196;2022-11-04T12:00:43;55638.94;;;-145.32;100.00
14041;BME280;7095;51.388;6.196;2022-11-04T12:03:29;55565.31;;;-145.32;100.00
14041;BME280;7095;51.388;6.196;2022-11-04T12:06:36;55684.69;;;-145.32;100.00
14041;BME280;7095;51.388;6.196;2022-11-04T12:09:32;55718.50;;;-145.32;100.00
14041;BME280;7095;51.388;6.196;2022-11-04T12:12:33;55686.69;;;-145.32;100.00
14041;BME280;7095;51.388;6.196;2022-11-04T12:15:17;55537.47;;;-145.32;100.00
14041;BME280;7095;51.388;6.196;2022-11-04T12:18:25;55644.91;;;-145.32;100.00
14041;BME280;7095;51.388;6.196;2022-11-04T12:21:04;55666.78;;;-145.32;100.00
14041;BME280;7095;51.388;6.196;2022-11-04T12:23:40;55869.69;;;-145.32;100.00
14041;BME280;7095;51.388;6.196;2022-11-04T12:26:19;55963.22;;;-145.32;100.00
14041;BME280;7095;51.388;6.196;2022-11-04T12:28:59;55766.25;;;-145.32;100.00
14041;BME280;7095;51.388;6.196;2022-11-04T12:31:38;55646.88;;;-145.32;100.00
14041;BME280;7095;51.388;6.196;2022-11-04T12:34:15;55587.22;;;-145.32;100.00
14041;BME280;7095;51.388;6.196;2022-11-04T12:36:59;55306.72;;;-145.32;100.00
14041;BME280;7095;51.388;6.196;2022-11-04T12:39:55;55097.88;;;-145.32;100.00
14041;BME280;7095;51.388;6.196;2022-11-04T12:42:35;55139.66;;;-145.32;100.00
14041;BME280;7095;51.388;6.196;2022-11-04T12:45:25;54952.69;;;-145.32;100.00
14041;BME280;7095;51.388;6.196;2022-11-04T12:48:02;54644.41;;;-145.32;100.00
14041;BME280;7095;51.388;6.196;2022-11-04T12:50:50;54481.34;;;-145.32;100.00
14041;BME280;7095;51.388;6.196;2022-11-04T12:53:43;54368.00;;;-145.32;100.00
14041;BME280;7095;51.388;6.196;2022-11-04T12:56:17;54405.78;;;-145.32;100.00
14041;BME280;7095;51.388;6.196;2022-11-04T12:59:07;54375.94;;;-145.32;100.00
14041;BME280;7095;51.388;6.196;2022-11-04T13:01:46;54463.44;;;-145.32;100.00
14041;BME280;7095;51.388;6.196;2022-11-04T13:04:19;54477.38;;;-145.32;100.00
14041;BME280;7095;51.388;6.196;2022-11-04T13:06:52;54548.97;;;-145.32;100.00
14041;BME280;7095;51.388;6.196;2022-11-04T13:09:30;54576.81;;;-145.32;100.00
14041;BME280;7095;51.388;6.196;2022-11-04T13:12:08;54564.88;;;-145.32;100.00
14041;BME280;7095;51.388;6.196;2022-11-04T13:14:42;54566.84;;;-145.32;100.00
14041;BME280;7095;51.388;6.196;2022-11-04T13:17:16;54558.91;;;-145.32;100.00
14041;BME280;7095;51.388;6.196;2022-11-04T13:19:49;54592.72;;;-145.32;100.00